createdAt,value
2023-03-21T00:01:51.620Z,19.38
2023-03-21T00:04:18.480Z,18.40
2023-03-21T00:06:45.368Z,19.45
2023-03-21T00:09:12.254Z,21.73
2023-03-21T00:11:39.116Z,20.05
2023-03-21T00:14:08.735Z,20.98
2023-03-21T00:16:36.186Z,19.45
2023-03-21T00:19:06.242Z,22.48
2023-03-21T00:21:59.256Z,21.10
2023-03-21T00:24:22.850Z,23.48
2023-03-21T00:26:50.936Z,25.90
2023-03-21T00:29:17.838Z,20.73
2023-03-21T00:31:46.696Z,25.63
2023-03-21T00:36:45.433Z,24.70
2023-03-21T00:39:12.341Z,26.67
2023-03-21T00:41:42.860Z,28.10
2023-03-21T00:44:15.426Z,29.50
2023-03-21T00:46:47.290Z,26.15
2023-03-21T00:49:21.457Z,23.83
2023-03-21T00:51:51.087Z,29.63
2023-03-21T00:54:18.220Z,26.92
2023-03-21T00:56:45.023Z,26.65
2023-03-21T00:59:11.792Z,26.25
2023-03-21T01:01:38.667Z,28.02
2023-03-21T01:04:10.854Z,30.48
2023-03-21T01:06:39.695Z,31.20
2023-03-21T01:09:18.097Z,28.98
2023-03-21T01:11:45.415Z,32.60
2023-03-21T01:14:22.558Z,31.40
2023-03-21T01:19:29.165Z,34.92
2023-03-21T01:22:00.390Z,30.92
2023-03-21T01:24:27.352Z,35.40
2023-03-21T01:26:54.219Z,40.05
2023-03-21T01:29:21.096Z,37.67
2023-03-21T01:31:48.335Z,42.15
2023-03-21T01:34:15.515Z,40.67
2023-03-21T01:36:42.578Z,37.87
2023-03-21T01:39:14.831Z,38.60
2023-03-21T01:41:44.425Z,38.42
2023-03-21T01:44:28.953Z,41.70
2023-03-21T01:47:13.154Z,39.47
2023-03-21T01:49:49.998Z,41.13
2023-03-21T01:52:38.726Z,41.35
2023-03-21T01:55:14.559Z,38.22
2023-03-21T01:58:04.943Z,43.55
2023-03-21T02:00:39.207Z,42.13
2023-03-21T02:03:33.307Z,40.92
2023-03-21T02:06:48.987Z,39.92
2023-03-21T02:09:35.151Z,40.00
2023-03-21T02:12:04.151Z,35.55
2023-03-21T02:14:34.452Z,39.58
2023-03-21T02:17:19.921Z,39.08
2023-03-21T02:20:08.992Z,35.38
2023-03-21T02:23:26.564Z,39.15
2023-03-21T02:26:02.892Z,40.63
2023-03-21T02:28:52.642Z,41.42
2023-03-21T02:31:26.558Z,40.25
2023-03-21T02:34:20.914Z,39.30
2023-03-21T02:37:11.984Z,41.92
2023-03-21T02:40:01.054Z,36.17
2023-03-21T02:42:30.492Z,35.90
2023-03-21T02:45:08.191Z,40.92
2023-03-21T02:47:49.610Z,40.58
2023-03-21T02:50:37.450Z,41.47
2023-03-21T02:53:08.999Z,37.53
2023-03-21T02:55:37.516Z,40.10
2023-03-21T02:58:13.142Z,38.00
2023-03-21T03:00:49.484Z,34.78
2023-03-21T03:03:34.582Z,39.85
2023-03-21T03:06:08.297Z,40.78
2023-03-21T03:09:02.967Z,39.47
2023-03-21T03:11:46.186Z,36.33
2023-03-21T03:14:49.563Z,39.13
2023-03-21T03:17:29.881Z,40.42
2023-03-21T03:20:21.694Z,48.13
2023-03-21T03:23:10.496Z,36.22
2023-03-21T03:25:50.121Z,37.90
2023-03-21T03:28:24.824Z,35.83
2023-03-21T03:31:08.063Z,39.47
2023-03-21T03:33:47.312Z,39.63
2023-03-21T03:36:33.423Z,41.38
2023-03-21T03:39:11.593Z,38.95
2023-03-21T03:42:10.137Z,37.13
2023-03-21T03:44:43.569Z,35.33
2023-03-21T03:47:32.929Z,41.40
2023-03-21T03:50:09.336Z,39.25
2023-03-21T03:52:55.631Z,36.70
2023-03-21T03:55:27.206Z,36.53
2023-03-21T03:57:58.076Z,37.10
2023-03-21T04:00:25.638Z,36.53
2023-03-21T04:02:52.626Z,36.85
2023-03-21T04:05:23.953Z,39.13
2023-03-21T04:07:51.062Z,38.17
2023-03-21T04:10:22.670Z,36.33
2023-03-21T04:12:50.094Z,36.15
2023-03-21T04:15:42.926Z,39.78
2023-03-21T04:18:14.363Z,36.85
2023-03-21T04:20:41.206Z,39.90
2023-03-21T04:23:08.493Z,37.63
2023-03-21T04:25:36.917Z,41.85
2023-03-21T04:28:05.688Z,39.67
2023-03-21T04:31:05.297Z,40.72
2023-03-21T04:33:44.635Z,41.15
2023-03-21T04:36:24.678Z,37.83
2023-03-21T04:38:53.741Z,36.92
2023-03-21T04:41:20.881Z,36.75
2023-03-21T04:43:49.287Z,37.63
2023-03-21T04:46:16.496Z,40.15
2023-03-21T04:48:43.366Z,40.17
2023-03-21T04:51:10.406Z,43.55
2023-03-21T04:53:38.350Z,40.20
2023-03-21T04:56:06.656Z,41.60
2023-03-21T04:58:34.442Z,42.05
2023-03-21T05:01:02.476Z,44.53
2023-03-21T05:03:34.364Z,44.58
2023-03-21T05:06:01.688Z,44.80
2023-03-21T05:08:28.456Z,44.57
2023-03-21T05:10:55.326Z,48.90
2023-03-21T05:13:25.714Z,48.72
2023-03-21T05:15:52.584Z,52.83
2023-03-21T05:18:24.857Z,47.38
2023-03-21T05:21:07.760Z,48.40
2023-03-21T05:23:39.429Z,51.35
2023-03-21T05:26:08.954Z,51.53
2023-03-21T05:28:50.180Z,51.17
2023-03-21T05:31:20.768Z,49.20
2023-03-21T05:33:51.560Z,57.45
2023-03-21T05:36:19.499Z,52.30
2023-03-21T05:38:46.789Z,52.67
2023-03-21T05:41:19.068Z,54.30
2023-03-21T05:43:48.665Z,49.97
2023-03-21T05:46:17.230Z,54.70
2023-03-21T05:48:45.284Z,51.15
2023-03-21T05:51:15.548Z,49.13
2023-03-21T05:53:42.343Z,54.80
2023-03-21T05:56:10.244Z,58.60
2023-03-21T05:58:52.854Z,52.58
2023-03-21T06:01:21.792Z,51.03
2023-03-21T06:03:57.028Z,49.28
2023-03-21T06:06:26.912Z,52.08
2023-03-21T06:09:00.212Z,50.33
2023-03-21T06:11:33.067Z,53.40
2023-03-21T06:14:19.380Z,49.72
2023-03-21T06:16:56.522Z,49.75
2023-03-21T06:19:23.448Z,50.72
2023-03-21T06:22:00.730Z,54.58
2023-03-21T06:24:27.912Z,52.28
2023-03-21T06:26:54.718Z,53.67
2023-03-21T06:29:21.824Z,56.42
2023-03-21T06:31:50.143Z,54.70
2023-03-21T06:34:17.899Z,53.22
2023-03-21T06:36:46.629Z,58.38
2023-03-21T06:39:16.079Z,56.72
2023-03-21T06:41:44.306Z,57.42
2023-03-21T06:44:11.189Z,55.70
2023-03-21T06:46:46.350Z,52.00
2023-03-21T06:49:18.888Z,55.60
2023-03-21T06:51:46.180Z,56.37
2023-03-21T06:54:19.040Z,56.30
2023-03-21T06:56:55.801Z,56.08
2023-03-21T06:59:34.622Z,57.45
2023-03-21T07:02:04.448Z,52.63
2023-03-21T07:04:35.455Z,54.08
2023-03-21T07:07:02.481Z,51.92
2023-03-21T07:09:29.696Z,49.15
2023-03-21T07:12:02.171Z,53.13
2023-03-21T07:14:41.489Z,52.35
2023-03-21T07:17:08.381Z,51.63
2023-03-21T07:19:35.283Z,48.03
2023-03-21T07:22:02.163Z,47.95
2023-03-21T07:24:29.176Z,48.28
2023-03-21T07:26:56.221Z,49.22
2023-03-21T07:29:23.208Z,48.08
2023-03-21T07:31:50.311Z,46.22
2023-03-21T07:34:17.679Z,47.60
2023-03-21T07:36:45.272Z,44.83
2023-03-21T07:39:13.149Z,45.35
2023-03-21T07:41:40.242Z,48.60
2023-03-21T07:44:13.742Z,47.35
2023-03-21T07:46:40.883Z,45.33
2023-03-21T07:49:08.790Z,39.55
2023-03-21T07:51:36.077Z,40.67
2023-03-21T07:54:03.014Z,39.83
2023-03-21T07:56:29.812Z,41.72
2023-03-21T07:58:56.599Z,38.17
2023-03-21T08:01:23.429Z,40.42
2023-03-21T08:03:51.303Z,37.95
2023-03-21T08:06:18.188Z,37.60
2023-03-21T08:08:44.980Z,38.03
2023-03-21T08:11:12.316Z,34.53
2023-03-21T08:13:39.664Z,37.22
2023-03-21T08:16:08.114Z,35.57
2023-03-21T08:18:35.266Z,34.08
2023-03-21T08:21:02.704Z,36.97
2023-03-21T08:23:29.723Z,33.33
2023-03-21T08:25:57.345Z,34.45
2023-03-21T08:28:24.886Z,32.42
2023-03-21T08:30:51.903Z,32.40
2023-03-21T08:33:19.108Z,33.50
2023-03-21T08:35:46.673Z,34.65
2023-03-21T08:38:13.919Z,31.63
2023-03-21T08:40:41.414Z,33.13
2023-03-21T08:43:08.362Z,31.92
2023-03-21T08:45:35.906Z,31.80
2023-03-21T08:48:02.862Z,33.20
2023-03-21T08:50:31.716Z,30.42
2023-03-21T08:52:58.606Z,35.78
2023-03-21T08:55:25.912Z,32.60
2023-03-21T08:57:52.668Z,31.80
2023-03-21T09:00:20.628Z,31.20
2023-03-21T09:02:49.521Z,34.80
2023-03-21T09:05:16.986Z,32.90
2023-03-21T09:07:44.923Z,30.10
2023-03-21T09:10:20.622Z,30.42
2023-03-21T09:12:53.267Z,29.92
2023-03-21T09:15:22.027Z,27.70
2023-03-21T09:17:53.971Z,30.90
2023-03-21T09:20:26.144Z,32.13
2023-03-21T09:22:53.495Z,31.58
2023-03-21T09:25:21.088Z,32.95
2023-03-21T09:27:48.400Z,28.75
2023-03-21T09:30:21.197Z,28.27
2023-03-21T09:32:49.400Z,26.58
2023-03-21T09:37:47.799Z,25.67
2023-03-21T09:40:25.520Z,26.13
2023-03-21T09:43:06.957Z,28.55
2023-03-21T09:45:47.739Z,25.80
2023-03-21T09:48:57.170Z,23.85
2023-03-21T09:51:28.772Z,23.90
2023-03-21T09:54:00.535Z,22.90
2023-03-21T09:56:27.994Z,26.02
2023-03-21T09:58:59.294Z,26.33
2023-03-21T10:01:34.216Z,25.23
2023-03-21T10:04:05.426Z,31.50
2023-03-21T10:06:34.196Z,24.55
2023-03-21T10:09:06.737Z,25.38
2023-03-21T10:11:57.264Z,23.60
2023-03-21T10:14:41.504Z,25.98
2023-03-21T10:17:33.391Z,25.00
2023-03-21T10:20:24.805Z,23.85
2023-03-21T10:22:54.199Z,24.63
2023-03-21T10:25:40.580Z,23.73
2023-03-21T10:28:09.731Z,21.20
2023-03-21T10:30:41.004Z,23.45
2023-03-21T10:33:14.395Z,21.40
2023-03-21T10:35:45.860Z,18.65
2023-03-21T10:38:17.607Z,20.98
2023-03-21T10:40:44.718Z,19.38
2023-03-21T10:43:25.848Z,21.40
2023-03-21T10:45:54.733Z,20.10
2023-03-21T10:48:22.913Z,18.90
2023-03-21T10:50:53.960Z,19.67
2023-03-21T10:53:29.749Z,19.85
2023-03-21T10:55:59.597Z,20.05
2023-03-21T10:58:34.632Z,18.88
2023-03-21T11:01:09.455Z,20.17
2023-03-21T11:03:38.654Z,19.20
2023-03-21T11:06:15.186Z,20.70
2023-03-21T11:08:47.357Z,19.13
2023-03-21T11:11:24.181Z,17.38
2023-03-21T11:14:01.011Z,16.55
2023-03-21T11:16:33.126Z,17.98
2023-03-21T11:19:16.351Z,19.50
2023-03-21T11:21:43.752Z,19.13
2023-03-21T11:24:19.028Z,18.70
2023-03-21T11:26:49.578Z,16.77
2023-03-21T11:29:22.191Z,18.15
2023-03-21T11:31:49.128Z,16.63
2023-03-21T11:34:30.847Z,18.65
2023-03-21T11:37:02.739Z,17.35
2023-03-21T11:39:34.687Z,15.32
2023-03-21T11:42:01.589Z,14.48
2023-03-21T11:44:43.697Z,14.60
2023-03-21T11:47:13.890Z,14.95
2023-03-21T11:49:40.706Z,14.13
2023-03-21T11:52:14.369Z,13.57
2023-03-21T11:55:00.808Z,13.77
2023-03-21T11:58:13.507Z,14.20
2023-03-21T12:01:03.040Z,14.30
2023-03-21T12:03:47.819Z,16.05
2023-03-21T12:06:30.493Z,14.93
2023-03-21T12:09:00.292Z,13.85
2023-03-21T12:11:51.226Z,13.55
2023-03-21T12:14:34.470Z,14.13
2023-03-21T12:17:14.068Z,12.48
2023-03-21T12:20:12.076Z,12.48
2023-03-21T12:22:52.474Z,14.77
2023-03-21T12:25:27.724Z,13.25
2023-03-21T12:28:10.473Z,15.88
2023-03-21T12:30:57.182Z,14.25
2023-03-21T12:33:36.630Z,14.18
2023-03-21T12:36:27.136Z,16.60
2023-03-21T12:39:17.613Z,14.13
2023-03-21T12:42:05.966Z,13.75
2023-03-21T12:44:38.786Z,15.40
2023-03-21T12:47:11.754Z,15.13
2023-03-21T12:49:52.882Z,14.70
2023-03-21T12:52:26.194Z,13.63
2023-03-21T12:54:52.965Z,13.30
2023-03-21T12:57:26.416Z,13.25
2023-03-21T13:00:15.988Z,13.32
2023-03-21T13:02:55.448Z,12.63
2023-03-21T13:05:28.144Z,12.45
2023-03-21T13:08:03.451Z,12.73
2023-03-21T13:10:31.056Z,11.85
2023-03-21T13:13:19.628Z,13.52
2023-03-21T13:15:53.887Z,13.18
2023-03-21T13:18:42.030Z,12.75
2023-03-21T13:21:11.725Z,13.13
2023-03-21T13:23:39.486Z,10.45
2023-03-21T13:26:11.234Z,11.13
2023-03-21T13:28:40.932Z,9.73
2023-03-21T13:31:19.714Z,10.35
2023-03-21T13:33:49.701Z,9.32
2023-03-21T13:36:23.544Z,8.60
2023-03-21T13:38:53.625Z,9.50
2023-03-21T13:41:48.918Z,8.73
2023-03-21T13:44:22.137Z,7.10
2023-03-21T13:47:01.558Z,9.35
2023-03-21T13:49:34.833Z,10.85
2023-03-21T13:52:22.836Z,9.70
2023-03-21T13:54:54.899Z,9.45
2023-03-21T13:57:30.498Z,8.98
2023-03-21T14:00:19.172Z,8.95
2023-03-21T14:03:08.436Z,8.57
2023-03-21T14:05:37.404Z,9.95
2023-03-21T14:08:15.328Z,7.55
2023-03-21T14:10:49.231Z,12.02
2023-03-21T14:13:20.215Z,9.15
2023-03-21T14:15:59.678Z,11.10
2023-03-21T14:18:51.682Z,8.57
2023-03-21T14:21:28.062Z,9.98
2023-03-21T14:24:00.863Z,8.80
2023-03-21T14:26:37.627Z,9.45
2023-03-21T14:29:12.401Z,8.15
2023-03-21T14:34:15.382Z,10.32
2023-03-21T14:36:45.769Z,11.15
2023-03-21T14:39:20.254Z,9.23
2023-03-21T14:41:56.457Z,9.95
2023-03-21T14:44:38.105Z,9.57
2023-03-21T14:47:24.054Z,10.52
2023-03-21T14:49:51.811Z,8.30
2023-03-21T14:52:31.314Z,8.02
2023-03-21T14:54:59.753Z,10.15
2023-03-21T14:57:30.902Z,9.13
2023-03-21T15:00:01.956Z,10.07
2023-03-21T15:02:40.730Z,10.18
2023-03-21T15:05:19.341Z,9.35
2023-03-21T15:07:56.531Z,12.23
2023-03-21T15:10:25.017Z,10.77
2023-03-21T15:12:58.036Z,10.02
2023-03-21T15:15:36.717Z,10.80
2023-03-21T15:18:06.436Z,11.93
2023-03-21T15:20:37.036Z,10.25
2023-03-21T15:23:09.799Z,12.23
2023-03-21T15:25:37.669Z,8.85
2023-03-21T15:28:06.537Z,11.35
2023-03-21T15:30:34.240Z,11.38
2023-03-21T15:33:10.407Z,10.45
2023-03-21T15:35:46.781Z,10.15
2023-03-21T15:38:44.972Z,10.10
2023-03-21T15:41:20.954Z,12.77
2023-03-21T15:44:14.256Z,10.82
2023-03-21T15:46:48.137Z,10.80
2023-03-21T15:49:15.402Z,12.38
2023-03-21T15:51:53.083Z,10.25
2023-03-21T15:54:27.956Z,11.50
2023-03-21T15:56:57.123Z,11.98
2023-03-21T15:59:27.349Z,11.00
2023-03-21T16:01:54.244Z,11.57
2023-03-21T16:04:23.624Z,10.27
2023-03-21T16:07:16.421Z,10.75
2023-03-21T16:09:46.029Z,12.88
2023-03-21T16:12:16.490Z,11.88
2023-03-21T16:14:47.240Z,12.93
2023-03-21T16:17:46.123Z,11.15
2023-03-21T16:20:20.204Z,12.10
2023-03-21T16:22:48.087Z,9.68
2023-03-21T16:25:15.810Z,10.70
2023-03-21T16:27:42.789Z,14.05
2023-03-21T16:30:14.117Z,12.05
2023-03-21T16:32:41.038Z,12.52
2023-03-21T16:35:08.458Z,12.00
2023-03-21T16:37:35.416Z,12.57
2023-03-21T16:40:05.694Z,11.15
2023-03-21T16:42:32.635Z,13.95
2023-03-21T16:44:59.383Z,13.18
2023-03-21T16:47:26.239Z,12.10
2023-03-21T16:49:53.061Z,13.75
2023-03-21T16:52:19.851Z,16.13
2023-03-21T16:54:46.677Z,15.63
2023-03-21T16:57:28.793Z,14.77
2023-03-21T16:59:56.448Z,12.00
2023-03-21T17:02:26.139Z,14.50
2023-03-21T17:04:52.959Z,15.95
2023-03-21T17:07:20.171Z,16.05
2023-03-21T17:09:47.987Z,15.38
2023-03-21T17:12:16.216Z,16.38
2023-03-21T17:19:39.546Z,16.63
2023-03-21T17:22:06.870Z,18.15
2023-03-21T17:24:33.941Z,19.23
2023-03-21T17:27:02.568Z,16.75
2023-03-21T17:29:29.754Z,19.25
2023-03-21T17:31:56.750Z,19.65
2023-03-21T17:34:23.486Z,20.67
2023-03-21T17:36:53.465Z,17.10
2023-03-21T17:39:24.091Z,17.02
2023-03-21T17:41:52.048Z,17.48
2023-03-21T17:44:20.367Z,19.08
2023-03-21T17:46:49.530Z,20.45
2023-03-21T17:49:17.385Z,20.65
2023-03-21T17:51:46.794Z,19.45
2023-03-21T17:54:13.694Z,20.50
2023-03-21T17:56:41.908Z,19.20
2023-03-21T18:01:38.259Z,20.13
2023-03-21T18:04:05.425Z,20.13
2023-03-21T18:06:34.552Z,18.20
2023-03-21T18:09:06.794Z,19.08
2023-03-21T18:11:33.897Z,21.20
2023-03-21T18:14:14.341Z,22.17
2023-03-21T18:16:42.892Z,20.45
2023-03-21T18:19:12.787Z,19.07
2023-03-21T18:21:45.359Z,22.77
2023-03-21T18:24:13.571Z,18.63
2023-03-21T18:26:41.159Z,23.35
2023-03-21T18:32:05.850Z,17.73
2023-03-21T18:34:35.880Z,16.55
2023-03-21T18:37:04.151Z,17.35
2023-03-21T18:39:32.338Z,15.18
2023-03-21T18:42:04.812Z,14.23
2023-03-21T18:44:38.012Z,15.20
2023-03-21T18:47:06.933Z,18.67
2023-03-21T18:52:22.731Z,16.98
2023-03-21T18:57:35.856Z,18.85
2023-03-21T19:00:11.294Z,17.45
2023-03-21T19:02:45.681Z,18.33
2023-03-21T19:05:15.529Z,17.55
2023-03-21T19:07:42.900Z,16.88
2023-03-21T19:10:19.734Z,18.63
2023-03-21T19:12:49.193Z,18.83
2023-03-21T19:15:19.375Z,18.30
2023-03-21T19:20:34.111Z,18.90
2023-03-21T19:23:01.152Z,20.45
2023-03-21T19:25:28.013Z,17.63
2023-03-21T19:27:54.924Z,16.27
2023-03-21T19:30:21.895Z,18.33
2023-03-21T19:32:48.801Z,20.30
2023-03-21T19:35:16.293Z,18.30
2023-03-21T19:37:43.755Z,18.77
2023-03-21T19:40:11.267Z,24.60
2023-03-21T19:42:38.515Z,21.80
2023-03-21T19:45:06.146Z,20.50
2023-03-21T19:47:33.063Z,21.13
2023-03-21T19:52:47.191Z,22.27
2023-03-21T19:55:14.927Z,26.20
2023-03-21T19:57:41.909Z,23.00
2023-03-21T20:00:11.378Z,25.02
2023-03-21T20:02:38.694Z,26.05
2023-03-21T20:05:07.674Z,26.40
2023-03-21T20:07:34.835Z,28.98
2023-03-21T20:10:01.685Z,27.80
2023-03-21T20:12:28.717Z,31.08
2023-03-21T20:15:10.387Z,30.92
2023-03-21T20:17:43.000Z,27.08
2023-03-21T20:20:10.667Z,30.95
2023-03-21T20:23:05.294Z,34.45
2023-03-21T20:25:24.687Z,33.95
2023-03-21T20:28:10.468Z,37.45
2023-03-21T20:30:44.353Z,36.03
2023-03-21T20:33:11.493Z,35.40
2023-03-21T20:36:24.059Z,37.67
2023-03-21T20:38:26.051Z,34.78
2023-03-21T20:40:52.952Z,35.67
2023-03-21T20:44:11.655Z,38.17
2023-03-21T20:46:09.679Z,33.15
2023-03-21T20:48:38.144Z,35.50
2023-03-21T20:51:59.981Z,32.45
2023-03-21T20:53:55.816Z,35.50
2023-03-21T20:56:22.872Z,38.80
2023-03-21T20:59:04.795Z,39.53
2023-03-21T21:01:36.777Z,39.13
2023-03-21T21:04:03.784Z,47.22
2023-03-21T21:06:31.467Z,39.10
2023-03-21T21:09:00.349Z,45.00
2023-03-21T21:12:05.070Z,37.05
2023-03-21T21:14:15.847Z,41.83
2023-03-21T21:16:42.756Z,37.08
2023-03-21T21:19:09.900Z,39.75
2023-03-21T21:21:37.446Z,42.97
2023-03-21T21:24:07.496Z,41.88
2023-03-21T21:26:35.046Z,49.50
2023-03-21T21:29:02.001Z,41.25
2023-03-21T21:31:29.086Z,44.55
2023-03-21T21:33:55.874Z,44.30
2023-03-21T21:36:22.729Z,43.67
2023-03-21T21:38:49.587Z,48.35
2023-03-21T21:41:20.332Z,46.05
2023-03-21T21:43:47.490Z,46.58
2023-03-21T21:46:14.469Z,43.53
2023-03-21T21:48:42.226Z,43.80
2023-03-21T21:51:09.956Z,46.35
2023-03-21T21:53:37.783Z,43.08
2023-03-21T21:56:06.228Z,40.80
2023-03-21T21:58:53.629Z,43.30
2023-03-21T22:01:20.950Z,42.67
2023-03-21T22:03:48.430Z,44.97
2023-03-21T22:06:15.964Z,41.92
2023-03-21T22:08:46.909Z,45.45
2023-03-21T22:11:18.535Z,47.40
2023-03-21T22:13:46.665Z,49.42
2023-03-21T22:16:13.504Z,47.28
2023-03-21T22:18:40.371Z,45.55
2023-03-21T22:21:07.319Z,48.97
2023-03-21T22:23:34.354Z,43.28
2023-03-21T22:26:01.545Z,43.88
2023-03-21T22:28:28.544Z,42.92
2023-03-21T22:30:55.976Z,44.55
2023-03-21T22:33:23.167Z,43.60
2023-03-21T22:35:51.482Z,44.90
2023-03-21T22:38:24.083Z,43.10
2023-03-21T22:40:58.634Z,46.42
2023-03-21T22:43:25.908Z,45.50
2023-03-21T22:45:53.307Z,55.30
2023-03-21T22:48:21.231Z,47.03
2023-03-21T22:50:48.569Z,45.13
2023-03-21T22:53:15.551Z,44.47
2023-03-21T22:55:42.562Z,42.90
2023-03-21T22:58:09.387Z,43.67
2023-03-21T23:00:36.251Z,41.38
2023-03-21T23:03:03.287Z,40.60
2023-03-21T23:05:30.176Z,40.42
2023-03-21T23:07:57.038Z,37.17
2023-03-21T23:10:25.507Z,45.88
2023-03-21T23:12:52.384Z,42.90
2023-03-21T23:15:19.284Z,40.35
2023-03-21T23:17:46.527Z,44.75
2023-03-21T23:20:13.485Z,40.73
2023-03-21T23:22:41.128Z,40.55
2023-03-21T23:25:08.286Z,41.55
2023-03-21T23:27:36.048Z,40.65
2023-03-21T23:30:04.898Z,40.25
2023-03-21T23:32:32.365Z,41.72
2023-03-21T23:34:59.599Z,39.53
2023-03-21T23:37:26.559Z,40.87
2023-03-21T23:39:55.191Z,39.50
2023-03-21T23:42:23.756Z,40.40
2023-03-21T23:44:50.499Z,40.80
2023-03-21T23:47:17.571Z,43.33
2023-03-21T23:49:45.283Z,37.85
2023-03-21T23:52:12.046Z,39.92
2023-03-21T23:54:39.026Z,42.00
2023-03-21T23:57:05.831Z,43.58
2023-03-21T23:59:33.395Z,35.70
